Time;durP1;ratioP1;P1;durP2;ratioP2;P2;SDS_P1;SDS_P2;PMS_P1;PMS_P2;Temp;Humidity;BMP_temperature;BMP_pressure;BME280_temperature;BME280_humidity;BME280_pressure;Samples;Min_cycle;Max_cycle;Signal;HPM_P1;HPM_P2
2022/03/28 00:01:01;;;;;;;8.90;6.37;;;8.90;99.90;;;;;;5005184;28;20445;-79
2022/03/28 00:03:27;;;;;;;8.37;6.87;;;8.90;99.90;;;;;;5005654;28;20468;-79
2022/03/28 00:05:54;;;;;;;9.10;6.77;;;8.90;99.90;;;;;;5007055;28;20425;-79
2022/03/28 00:08:21;;;;;;;7.70;6.70;;;8.90;99.90;;;;;;5000498;28;20921;-80
2022/03/28 00:10:48;;;;;;;9.03;6.57;;;8.90;99.90;;;;;;5004232;28;20422;-79
2022/03/28 00:13:14;;;;;;;11.03;7.03;;;9.00;1.00;;;;;;5004337;28;20460;-80
2022/03/28 00:15:42;;;;;;;8.47;6.93;;;8.80;99.90;;;;;;5003336;28;20473;-79
2022/03/28 00:18:10;;;;;;;8.47;7.63;;;8.80;99.90;;;;;;5004834;28;20501;-79
2022/03/28 00:20:37;;;;;;;9.03;6.33;;;8.80;99.90;;;;;;5003729;28;20448;-78
2022/03/28 00:23:04;;;;;;;10.93;6.77;;;8.70;1.00;;;;;;5003988;28;20482;-78
2022/03/28 00:25:31;;;;;;;9.23;7.60;;;8.70;99.90;;;;;;5005425;28;20451;-78
2022/03/28 00:27:58;;;;;;;9.70;7.30;;;8.70;99.90;;;;;;5002519;28;21063;-79
2022/03/28 00:30:25;;;;;;;8.30;6.80;;;8.70;99.90;;;;;;4999558;28;20923;-79
2022/03/28 00:32:53;;;;;;;8.07;6.13;;;8.60;99.90;;;;;;5002494;28;20533;-79
2022/03/28 00:35:20;;;;;;;8.00;7.20;;;8.60;99.90;;;;;;4999942;28;20457;-79
2022/03/28 00:37:46;;;;;;;8.57;6.50;;;8.60;99.90;;;;;;5000503;28;20473;-79
2022/03/28 00:40:13;;;;;;;10.70;6.60;;;8.60;99.90;;;;;;5002897;28;20454;-80
2022/03/28 00:42:40;;;;;;;7.97;6.60;;;8.60;99.90;;;;;;5002666;28;20444;-79
2022/03/28 00:45:08;;;;;;;8.53;6.20;;;8.50;99.90;;;;;;5002961;28;20815;-79
2022/03/28 00:47:34;;;;;;;7.00;6.30;;;8.50;99.90;;;;;;5002525;28;20532;-79
2022/03/28 00:50:03;;;;;;;8.30;6.13;;;8.50;99.90;;;;;;5000290;28;20450;-79
2022/03/28 00:52:30;;;;;;;9.77;7.30;;;8.50;1.00;;;;;;4999391;28;20499;-79
2022/03/28 00:54:58;;;;;;;7.27;6.17;;;8.50;99.90;;;;;;4998118;28;20478;-79
2022/03/28 00:57:25;;;;;;;6.80;6.10;;;8.60;1.00;;;;;;4997309;28;20477;-78
2022/03/28 00:59:51;;;;;;;8.40;6.70;;;8.40;1.00;;;;;;4997284;28;20482;-79
2022/03/28 01:02:18;;;;;;;10.00;6.67;;;8.40;1.00;;;;;;5000735;28;20769;-79
2022/03/28 01:04:45;;;;;;;6.80;5.30;;;8.40;1.00;;;;;;5001019;28;20828;-79
2022/03/28 01:07:14;;;;;;;7.43;6.57;;;8.40;1.00;;;;;;4998619;28;20857;-79
2022/03/28 01:09:41;;;;;;;10.27;6.60;;;8.50;1.00;;;;;;5000200;28;20428;-79
2022/03/28 01:12:08;;;;;;;9.00;7.00;;;8.40;1.00;;;;;;5000188;28;20451;-79
2022/03/28 01:14:36;;;;;;;11.70;7.53;;;8.40;1.00;;;;;;5032069;23;20456;-82
2022/03/28 01:19:52;;;;;;;9.00;7.20;;;8.40;1.00;;;;;;5013605;28;20416;-83
2022/03/28 01:22:19;;;;;;;15.23;7.23;;;8.40;1.00;;;;;;5009779;28;20421;-84
2022/03/28 01:24:47;;;;;;;6.97;6.27;;;8.30;1.00;;;;;;5008134;28;20440;-83
2022/03/28 01:27:15;;;;;;;10.73;7.00;;;8.30;1.00;;;;;;5007808;28;20485;-83
2022/03/28 01:29:43;;;;;;;9.17;6.43;;;8.30;1.00;;;;;;5008108;28;20481;-83
2022/03/28 01:32:10;;;;;;;10.40;6.80;;;8.20;1.00;;;;;;5008554;28;20495;-82
2022/03/28 01:34:37;;;;;;;8.87;6.87;;;8.10;1.00;;;;;;5007973;28;20497;-83
2022/03/28 01:37:04;;;;;;;10.63;8.07;;;9.90;1.00;;;;;;5007242;28;20456;-83
2022/03/28 01:39:33;;;;;;;10.60;6.80;;;8.10;1.00;;;;;;5007172;28;20415;-85
2022/03/28 01:41:59;;;;;;;10.10;7.63;;;8.20;1.00;;;;;;5008247;28;20544;-81
2022/03/28 01:44:27;;;;;;;9.10;5.73;;;8.10;99.90;;;;;;5015996;28;20461;-81
2022/03/28 01:46:54;;;;;;;8.13;6.07;;;8.10;1.00;;;;;;5019901;28;20447;-80
2022/03/28 01:49:21;;;;;;;8.80;7.00;;;8.20;40.00;;;;;;5020529;28;20448;-80
2022/03/28 01:51:49;;;;;;;7.97;6.77;;;8.10;1.00;;;;;;5017271;28;20450;-81
2022/03/28 01:54:16;;;;;;;7.67;6.50;;;8.10;99.90;;;;;;5009945;28;20437;-84
2022/03/28 01:56:45;;;;;;;7.60;6.60;;;8.10;99.90;;;;;;5007472;28;20433;-83
2022/03/28 01:59:14;;;;;;;10.80;7.60;;;8.00;99.90;;;;;;5007056;28;20451;-83
2022/03/28 02:01:41;;;;;;;11.17;6.50;;;8.00;99.90;;;;;;5005948;28;20428;-84
2022/03/28 02:04:07;;;;;;;8.23;7.00;;;7.90;99.90;;;;;;5006871;28;20448;-82
2022/03/28 02:06:34;;;;;;;8.97;6.77;;;7.90;1.00;;;;;;5006292;28;20422;-83
2022/03/28 02:09:02;;;;;;;9.20;6.97;;;7.90;99.90;;;;;;5002567;28;20455;-82
2022/03/28 02:11:29;;;;;;;9.00;8.10;;;7.90;1.00;;;;;;5007779;28;20997;-82
2022/03/28 02:13:57;;;;;;;10.53;6.50;;;7.80;1.00;;;;;;5017772;28;20444;-83
2022/03/28 02:16:23;;;;;;;13.77;8.23;;;7.80;1.00;;;;;;5015740;28;20405;-83
2022/03/28 02:18:50;;;;;;;10.03;6.50;;;7.70;1.00;;;;;;5009774;28;20478;-82
2022/03/28 02:21:17;;;;;;;8.33;7.10;;;7.70;1.00;;;;;;5002930;28;20452;-83
2022/03/28 02:23:43;;;;;;;8.93;6.43;;;7.70;99.90;;;;;;5006373;28;20516;-84
2022/03/28 02:26:10;;;;;;;10.13;7.23;;;7.70;99.90;;;;;;5004475;28;20447;-83
2022/03/28 02:28:36;;;;;;;9.90;6.40;;;7.60;1.00;;;;;;5004091;28;20468;-83
2022/03/28 02:31:05;;;;;;;8.60;6.90;;;7.60;5.50;;;;;;5004317;28;20427;-83
2022/03/28 02:33:31;;;;;;;6.87;5.67;;;7.60;1.00;;;;;;5001024;28;20992;-83
2022/03/28 02:35:58;;;;;;;12.37;6.70;;;7.60;99.90;;;;;;5000704;28;20459;-83
2022/03/28 02:38:24;;;;;;;9.03;6.70;;;7.70;1.00;;;;;;5001467;28;20469;-83
2022/03/28 02:40:51;;;;;;;10.47;7.00;;;7.60;99.90;;;;;;5004114;28;20461;-82
2022/03/28 02:43:22;;;;;;;9.63;6.90;;;7.60;99.90;;;;;;5002499;28;20439;-82
2022/03/28 02:45:49;;;;;;;7.33;5.83;;;7.80;1.00;;;;;;5002191;28;20473;-82
2022/03/28 02:48:17;;;;;;;10.20;7.67;;;7.50;99.90;;;;;;5011617;28;20491;-83
2022/03/28 02:50:45;;;;;;;8.67;6.53;;;7.50;1.00;;;;;;5007586;28;20431;-83
2022/03/28 02:53:11;;;;;;;8.73;6.50;;;7.50;1.00;;;;;;5001825;28;20433;-82
2022/03/28 02:55:38;;;;;;;11.27;7.87;;;7.50;1.00;;;;;;5000528;28;20471;-82
2022/03/28 02:58:05;;;;;;;14.90;7.87;;;7.50;99.90;;;;;;5001079;28;20449;-82
2022/03/28 03:00:32;;;;;;;11.35;7.97;;;7.40;99.90;;;;;;5000687;28;20445;-81
2022/03/28 03:02:59;;;;;;;13.47;6.90;;;7.40;1.00;;;;;;5007698;28;20216;-82
2022/03/28 03:05:27;;;;;;;9.93;7.40;;;7.50;1.00;;;;;;5005069;28;20444;-83
2022/03/28 03:07:54;;;;;;;9.10;7.33;;;7.40;1.00;;;;;;5001749;28;20202;-81
2022/03/28 03:10:21;;;;;;;11.73;8.48;;;7.40;1.00;;;;;;5000646;28;20452;-81
2022/03/28 03:12:47;;;;;;;10.67;8.23;;;7.40;1.00;;;;;;4999502;28;20209;-82
2022/03/28 03:15:14;;;;;;;12.03;8.20;;;7.40;1.00;;;;;;5003839;28;20483;-81
2022/03/28 03:17:40;;;;;;;14.67;8.23;;;7.40;1.00;;;;;;5001470;28;20450;-80
2022/03/28 03:20:08;;;;;;;13.73;7.37;;;7.30;99.90;;;;;;5008559;28;20459;-80
2022/03/28 03:22:36;;;;;;;11.50;7.63;;;7.30;99.90;;;;;;5006407;28;20457;-82
2022/03/28 03:25:03;;;;;;;9.05;7.80;;;7.40;99.90;;;;;;5006454;28;20472;-82
2022/03/28 03:27:29;;;;;;;11.10;7.60;;;7.30;99.90;;;;;;5002072;28;20205;-82
2022/03/28 03:29:56;;;;;;;15.43;7.50;;;7.30;99.90;;;;;;5000783;28;20257;-82
2022/03/28 03:32:23;;;;;;;9.57;7.43;;;7.30;99.90;;;;;;5000286;28;20489;-82
2022/03/28 03:34:51;;;;;;;11.07;6.90;;;7.30;1.00;;;;;;5000886;28;20229;-80
2022/03/28 03:37:18;;;;;;;22.53;8.20;;;7.20;1.00;;;;;;5000950;28;20885;-82
2022/03/28 03:39:46;;;;;;;10.30;8.65;;;7.20;1.00;;;;;;5001519;28;20829;-81
2022/03/28 03:42:13;;;;;;;18.67;8.40;;;7.20;1.00;;;;;;5000230;28;20641;-81
2022/03/28 03:44:39;;;;;;;13.70;8.40;;;7.10;1.00;;;;;;4999291;28;20232;-81
2022/03/28 03:47:06;;;;;;;14.25;8.93;;;7.10;1.00;;;;;;4999754;28;20428;-81
2022/03/28 03:49:33;;;;;;;12.10;8.05;;;7.10;1.00;;;;;;5017674;28;20563;-79
2022/03/28 03:52:00;;;;;;;7.70;6.88;;;7.10;1.00;;;;;;5018552;28;20192;-79
2022/03/28 03:54:28;;;;;;;8.87;6.83;;;7.00;1.00;;;;;;5011271;28;20256;-82
2022/03/28 03:56:55;;;;;;;15.80;8.13;;;7.00;1.00;;;;;;4999479;28;20424;-81
2022/03/28 03:59:22;;;;;;;11.05;8.25;;;7.00;1.00;;;;;;4999505;28;20502;-81
2022/03/28 04:01:49;;;;;;;10.90;8.23;;;7.00;1.00;;;;;;4999202;28;20572;-83
2022/03/28 04:04:16;;;;;;;13.35;8.48;;;7.00;1.00;;;;;;5007741;28;20445;-80
2022/03/28 04:06:42;;;;;;;12.00;8.95;;;6.90;1.00;;;;;;5003745;28;20236;-81
2022/03/28 04:09:09;;;;;;;13.73;7.95;;;6.80;1.00;;;;;;5002534;28;20225;-81
2022/03/28 04:11:36;;;;;;;9.70;7.45;;;6.80;1.00;;;;;;4998830;28;20209;-82
2022/03/28 04:14:04;;;;;;;11.40;7.53;;;6.80;1.00;;;;;;4998974;28;20240;-83
2022/03/28 04:16:31;;;;;;;9.05;6.97;;;6.70;1.00;;;;;;4998328;28;20448;-83
2022/03/28 04:18:57;;;;;;;15.88;8.32;;;6.70;1.00;;;;;;4998064;28;20233;-83
2022/03/28 04:21:24;;;;;;;18.15;8.00;;;6.70;1.00;;;;;;4999664;28;20205;-82
2022/03/28 04:23:51;;;;;;;13.10;7.95;;;6.70;1.00;;;;;;5001630;28;20226;-82
2022/03/28 04:26:18;;;;;;;11.40;7.00;;;6.70;23.60;;;;;;5004996;28;20232;-82
2022/03/28 04:28:45;;;;;;;13.13;8.20;;;6.60;2.50;;;;;;5003932;28;20290;-82
2022/03/28 04:31:13;;;;;;;11.80;7.38;;;6.60;10.50;;;;;;5005404;28;20212;-80
2022/03/28 04:33:39;;;;;;;12.27;7.38;;;6.50;14.30;;;;;;5004176;28;20276;-82
2022/03/28 04:36:06;;;;;;;10.00;7.10;;;6.50;23.20;;;;;;5001725;28;20213;-81
2022/03/28 04:38:34;;;;;;;12.13;8.05;;;6.50;24.10;;;;;;5002091;28;20636;-82
2022/03/28 04:41:01;;;;;;;13.05;7.80;;;6.50;46.60;;;;;;5003422;28;20209;-83
2022/03/28 04:43:27;;;;;;;15.45;10.60;;;6.40;92.10;;;;;;5001848;28;20233;-82
2022/03/28 04:45:54;;;;;;;11.57;8.35;;;6.40;62.50;;;;;;5002297;28;20209;-82
2022/03/28 04:48:23;;;;;;;14.25;8.98;;;6.40;54.10;;;;;;5004902;28;20599;-82
2022/03/28 04:50:49;;;;;;;11.07;7.97;;;6.40;72.90;;;;;;5009183;28;20215;-81
2022/03/28 04:53:17;;;;;;;15.23;8.80;;;6.40;93.10;;;;;;5008990;28;20197;-84
2022/03/28 04:55:43;;;;;;;8.88;7.53;;;6.40;94.60;;;;;;5004592;28;20307;-82
2022/03/28 04:58:10;;;;;;;12.18;9.23;;;6.40;92.60;;;;;;5008331;28;20205;-83
2022/03/28 05:00:37;;;;;;;11.40;7.78;;;6.40;93.70;;;;;;5011146;28;20213;-83
2022/03/28 05:03:03;;;;;;;16.92;8.50;;;6.40;92.00;;;;;;5002610;28;20236;-84
2022/03/28 05:05:31;;;;;;;14.10;8.48;;;6.40;99.10;;;;;;5002768;28;20772;-82
2022/03/28 05:07:58;;;;;;;19.00;10.13;;;6.40;99.90;;;;;;5001971;28;20289;-82
2022/03/28 05:10:25;;;;;;;14.93;7.45;;;6.40;99.90;;;;;;5003398;28;20281;-82
2022/03/28 05:12:52;;;;;;;14.50;8.50;;;6.40;99.90;;;;;;5017375;28;20200;-82
2022/03/28 05:15:19;;;;;;;20.33;9.25;;;6.40;99.90;;;;;;5019364;28;20253;-84
2022/03/28 05:17:45;;;;;;;14.75;8.70;;;6.40;99.90;;;;;;5007709;28;20708;-82
2022/03/28 05:20:12;;;;;;;24.48;9.30;;;6.40;99.90;;;;;;5003725;28;20210;-84
2022/03/28 05:22:40;;;;;;;15.18;8.98;;;6.40;99.90;;;;;;5002210;28;20209;-81
2022/03/28 05:25:08;;;;;;;13.13;8.40;;;6.50;99.90;;;;;;5001929;28;20252;-81
2022/03/28 05:27:42;;;;;;;12.82;8.98;;;6.50;99.90;;;;;;5002462;28;20232;-82
2022/03/28 05:30:10;;;;;;;21.67;12.77;;;6.60;99.90;;;;;;5001591;28;20209;-82
2022/03/28 05:32:36;;;;;;;14.57;9.32;;;6.60;99.90;;;;;;5002543;28;20248;-82
2022/03/28 05:35:03;;;;;;;24.13;9.15;;;6.60;99.90;;;;;;5002081;28;20260;-82
2022/03/28 05:37:30;;;;;;;17.50;9.27;;;6.70;99.90;;;;;;5004868;28;20216;-84
2022/03/28 05:39:58;;;;;;;16.60;10.88;;;6.70;99.90;;;;;;5001298;28;20202;-83
2022/03/28 05:42:25;;;;;;;14.32;8.57;;;6.80;99.90;;;;;;5005058;28;20206;-81
2022/03/28 05:44:52;;;;;;;16.65;8.77;;;6.70;99.90;;;;;;5001778;28;20260;-82
2022/03/28 05:47:19;;;;;;;16.65;9.27;;;6.80;99.90;;;;;;5002823;28;20228;-83
2022/03/28 05:49:45;;;;;;;13.43;8.20;;;6.80;99.90;;;;;;5007064;28;20233;-78
2022/03/28 05:52:12;;;;;;;32.03;10.45;;;6.80;99.90;;;;;;5020232;28;20189;-79
2022/03/28 05:54:38;;;;;;;11.55;8.32;;;6.90;99.90;;;;;;5020154;28;20221;-80
2022/03/28 05:57:07;;;;;;;18.73;7.53;;;6.90;99.90;;;;;;5009722;28;20232;-81
2022/03/28 05:59:34;;;;;;;16.00;8.20;;;7.00;99.90;;;;;;5004342;28;20220;-82
2022/03/28 06:02:00;;;;;;;11.60;7.63;;;7.10;99.90;;;;;;5016846;28;20442;-81
2022/03/28 06:04:27;;;;;;;12.85;7.95;;;7.30;99.90;;;;;;5016464;28;20221;-83
2022/03/28 06:06:54;;;;;;;15.18;9.50;;;7.30;91.00;;;;;;5007358;28;20216;-83
2022/03/28 06:09:20;;;;;;;15.93;8.35;;;7.40;65.80;;;;;;5005214;28;20636;-83
2022/03/28 06:11:47;;;;;;;18.23;10.63;;;7.40;56.70;;;;;;5006351;28;20212;-83
2022/03/28 06:14:15;;;;;;;10.23;9.03;;;7.30;65.70;;;;;;5009883;28;20477;-82
2022/03/28 06:16:41;;;;;;;13.43;7.43;;;7.40;71.70;;;;;;5014475;28;20449;-83
2022/03/28 06:19:08;;;;;;;17.50;9.43;;;7.40;75.90;;;;;;5010727;28;20416;-82
2022/03/28 06:21:36;;;;;;;16.13;8.37;;;7.40;57.10;;;;;;5004927;28;20450;-83
2022/03/28 06:24:03;;;;;;;13.20;8.47;;;7.50;46.20;;;;;;5000680;28;20473;-84
2022/03/28 06:26:29;;;;;;;14.10;8.77;;;7.50;41.80;;;;;;5000699;28;20802;-82
2022/03/28 06:28:57;;;;;;;16.10;8.30;;;7.60;53.70;;;;;;5000849;28;20452;-82
2022/03/28 06:31:26;;;;;;;17.00;9.83;;;7.60;14.40;;;;;;5000514;28;20524;-83
2022/03/28 06:33:57;;;;;;;15.73;9.50;;;7.70;2.30;;;;;;5000049;28;20468;-82
2022/03/28 06:36:25;;;;;;;14.80;8.73;;;7.70;1.00;;;;;;5001075;28;20823;-83
2022/03/28 06:38:51;;;;;;;18.70;9.43;;;7.70;1.00;;;;;;5005850;28;20475;-83
2022/03/28 06:41:18;;;;;;;15.60;8.37;;;7.80;1.00;;;;;;5006992;28;20459;-81
2022/03/28 06:43:45;;;;;;;13.97;9.00;;;7.80;1.00;;;;;;5006994;28;20469;-83
2022/03/28 06:46:11;;;;;;;13.63;8.90;;;7.90;1.00;;;;;;5008966;28;20446;-79
2022/03/28 06:48:39;;;;;;;12.73;8.95;;;8.00;1.00;;;;;;5011391;28;20417;-79
2022/03/28 06:51:09;;;;;;;18.10;9.77;;;8.00;1.00;;;;;;5010361;28;20647;-80
2022/03/28 06:53:35;;;;;;;20.37;9.93;;;8.10;1.00;;;;;;5015205;28;20459;-80
2022/03/28 06:56:03;;;;;;;13.97;8.33;;;8.00;1.00;;;;;;5017143;28;20424;-80
2022/03/28 06:58:29;;;;;;;14.70;8.60;;;8.10;1.00;;;;;;5015563;28;20952;-80
2022/03/28 07:00:56;;;;;;;13.23;9.37;;;8.20;1.00;;;;;;5010287;28;20473;-81
2022/03/28 07:03:22;;;;;;;12.60;7.97;;;8.20;1.00;;;;;;5013918;28;20431;-80
2022/03/28 07:05:50;;;;;;;13.43;9.70;;;8.20;1.00;;;;;;5014240;28;20435;-80
2022/03/28 07:08:17;;;;;;;14.73;9.83;;;8.30;1.00;;;;;;5012826;28;20445;-82
2022/03/28 07:10:44;;;;;;;14.00;8.10;;;8.40;1.00;;;;;;5011404;28;20993;-82
2022/03/28 07:13:10;;;;;;;15.20;9.80;;;8.50;1.00;;;;;;5009631;28;20471;-80
2022/03/28 07:15:37;;;;;;;16.00;9.13;;;8.70;99.90;;;;;;5014702;23;20541;-81
2022/03/28 07:18:07;;;;;;;16.53;8.70;;;8.80;99.90;;;;;;5000841;28;20443;-81
2022/03/28 07:20:34;;;;;;;18.17;8.93;;;8.70;99.90;;;;;;5000436;28;20845;-80
2022/03/28 07:23:04;;;;;;;15.70;8.63;;;8.80;1.00;;;;;;5001214;28;20456;-80
2022/03/28 07:25:31;;;;;;;12.97;9.10;;;8.90;99.90;;;;;;5000679;28;20548;-81
2022/03/28 07:27:59;;;;;;;16.80;7.67;;;9.30;99.90;;;;;;5000484;28;20472;-81
2022/03/28 07:30:27;;;;;;;13.07;9.07;;;9.10;99.90;;;;;;5001647;28;20500;-80
2022/03/28 07:32:54;;;;;;;9.30;7.00;;;9.20;1.00;;;;;;4999226;28;20459;-80
2022/03/28 07:35:21;;;;;;;11.90;6.80;;;9.20;99.90;;;;;;5000506;28;20524;-81
2022/03/28 07:37:48;;;;;;;16.47;7.23;;;9.40;99.90;;;;;;5000518;28;20438;-81
2022/03/28 07:40:17;;;;;;;10.77;6.90;;;9.50;1.00;;;;;;5000435;28;20445;-80
2022/03/28 07:42:46;;;;;;;19.30;8.00;;;9.70;99.90;;;;;;5000162;28;20456;-80
2022/03/28 07:45:14;;;;;;;12.30;6.37;;;9.80;1.00;;;;;;4999445;28;20534;-80
2022/03/28 07:47:41;;;;;;;10.00;6.17;;;9.90;99.90;;;;;;4999309;28;20494;-80
2022/03/28 07:50:09;;;;;;;10.83;6.73;;;10.00;43.50;;;;;;4999703;28;20483;-80
2022/03/28 07:52:35;;;;;;;11.90;5.80;;;10.10;99.90;;;;;;5000186;28;20455;-81
2022/03/28 07:55:02;;;;;;;10.77;7.43;;;9.80;99.90;;;;;;5000776;28;20472;-82
2022/03/28 07:57:30;;;;;;;12.87;7.00;;;10.30;1.00;;;;;;5006494;28;20421;-82
2022/03/28 07:59:58;;;;;;;12.00;8.30;;;10.40;99.90;;;;;;5011084;28;20419;-81
2022/03/28 08:02:25;;;;;;;11.47;8.00;;;10.40;1.00;;;;;;5009696;28;20448;-81
2022/03/28 08:04:51;;;;;;;10.20;6.90;;;10.50;99.90;;;;;;5010348;28;20472;-81
2022/03/28 08:07:18;;;;;;;16.07;7.50;;;10.50;99.90;;;;;;5004684;28;20427;-81
2022/03/28 08:09:45;;;;;;;9.67;6.70;;;10.60;99.90;;;;;;5003852;28;20507;-82
2022/03/28 08:12:12;;;;;;;12.43;7.47;;;10.60;99.90;;;;;;5003390;28;20452;-81
2022/03/28 08:14:42;;;;;;;11.20;8.73;;;10.80;1.00;;;;;;5004131;28;20443;-81
2022/03/28 08:17:09;;;;;;;12.53;7.80;;;10.80;99.90;;;;;;5005750;28;20436;-82
2022/03/28 08:19:36;;;;;;;12.27;6.67;;;10.90;99.90;;;;;;5012370;28;20874;-80
2022/03/28 08:22:06;;;;;;;11.50;6.60;;;10.90;99.90;;;;;;5005298;28;20510;-80
2022/03/28 08:24:33;;;;;;;12.17;6.57;;;11.00;99.90;;;;;;5004861;28;20490;-80
2022/03/28 08:27:00;;;;;;;11.10;7.13;;;11.00;99.90;;;;;;5004607;28;20443;-80
2022/03/28 08:29:32;;;;;;;13.23;6.13;;;11.00;95.50;;;;;;5010379;28;20491;-79
2022/03/28 08:32:04;;;;;;;9.33;7.10;;;11.10;99.90;;;;;;5011375;28;21039;-80
2022/03/28 08:34:31;;;;;;;12.33;6.67;;;11.20;99.90;;;;;;5008136;28;20468;-80
2022/03/28 08:37:04;;;;;;;11.90;7.27;;;11.20;10.20;;;;;;5011285;28;20419;-79
2022/03/28 08:39:31;;;;;;;19.03;7.03;;;11.30;36.50;;;;;;5013481;28;20838;-81
2022/03/28 08:41:59;;;;;;;9.13;5.10;;;11.20;5.50;;;;;;5013371;28;20423;-81
2022/03/28 08:44:28;;;;;;;10.47;5.50;;;11.50;1.00;;;;;;5008271;28;20468;-81
2022/03/28 08:46:56;;;;;;;10.97;5.33;;;11.50;1.00;;;;;;5007327;28;20452;-81
2022/03/28 08:49:24;;;;;;;11.03;6.07;;;11.50;1.00;;;;;;5006714;28;20429;-82
2022/03/28 08:51:52;;;;;;;13.43;5.93;;;;;;;;;;5012804;28;20578;-82
2022/03/28 08:54:22;;;;;;;8.07;5.47;;;11.60;1.00;;;;;;5015046;28;20431;-82
2022/03/28 08:56:49;;;;;;;10.53;5.63;;;;;;;;;;5010031;28;20458;-82
2022/03/28 08:59:16;;;;;;;8.70;5.93;;;11.90;1.00;;;;;;5014558;28;20435;-81
2022/03/28 09:01:45;;;;;;;7.03;6.13;;;11.10;1.00;;;;;;5015208;28;20444;-81
2022/03/28 09:04:14;;;;;;;9.53;5.90;;;11.90;10.40;;;;;;5015527;28;20444;-80
2022/03/28 09:06:43;;;;;;;13.00;6.63;;;12.00;1.00;;;;;;5014424;28;20589;-80
2022/03/28 09:09:28;;;;;;;7.80;5.77;;;12.50;99.90;;;;;;5011236;28;20453;-82
2022/03/28 09:12:17;;;;;;;12.40;5.97;;;12.30;99.90;;;;;;5011667;28;20506;-80
2022/03/28 09:14:57;;;;;;;6.13;4.53;;;12.40;1.00;;;;;;5008572;28;20443;-81
2022/03/28 09:17:55;;;;;;;8.20;4.73;;;12.60;1.00;;;;;;5008785;28;20444;-83
2022/03/28 09:20:23;;;;;;;6.37;4.20;;;12.50;1.00;;;;;;5010873;28;20472;-81
2022/03/28 09:22:52;;;;;;;7.03;5.97;;;12.50;1.00;;;;;;5014505;28;20459;-80
2022/03/28 09:25:19;;;;;;;7.63;4.77;;;;;;;;;;5019004;28;20436;-80
2022/03/28 09:27:49;;;;;;;6.60;4.63;;;;;;;;;;5020190;28;20449;-80
2022/03/28 09:30:18;;;;;;;8.87;5.90;;;12.80;1.00;;;;;;5018392;28;20499;-79
2022/03/28 09:32:46;;;;;;;6.37;4.67;;;12.80;1.00;;;;;;5019924;28;20440;-80
2022/03/28 09:35:19;;;;;;;6.70;5.97;;;12.90;1.00;;;;;;5019462;28;20453;-80
2022/03/28 09:38:08;;;;;;;15.50;5.43;;;12.90;1.00;;;;;;5018627;28;20429;-80
2022/03/28 09:40:37;;;;;;;7.80;5.13;;;12.80;1.00;;;;;;5014534;28;20448;-80
2022/03/28 09:43:06;;;;;;;11.23;6.30;;;12.90;1.00;;;;;;5008392;28;20444;-80
2022/03/28 09:45:38;;;;;;;7.20;5.43;;;12.90;1.00;;;;;;5006881;28;20556;-80
2022/03/28 09:48:07;;;;;;;6.57;5.60;;;13.00;1.00;;;;;;5004947;28;20425;-81
2022/03/28 09:50:39;;;;;;;6.60;4.70;;;13.10;1.00;;;;;;5002492;28;20480;-82
2022/03/28 09:53:20;;;;;;;6.97;4.57;;;13.20;1.00;;;;;;5003251;28;20460;-81
2022/03/28 09:55:49;;;;;;;5.80;4.50;;;13.20;1.00;;;;;;5003705;28;20503;-81
2022/03/28 09:58:37;;;;;;;9.40;4.80;;;13.30;1.00;;;;;;5002840;28;20420;-81
2022/03/28 10:01:08;;;;;;;6.10;4.90;;;13.40;1.00;;;;;;5003671;28;20425;-81
2022/03/28 10:03:36;;;;;;;9.80;4.87;;;13.50;1.00;;;;;;5003721;28;20789;-81
2022/03/28 10:06:04;;;;;;;6.43;4.50;;;13.50;1.00;;;;;;5005446;28;20563;-80
2022/03/28 10:08:35;;;;;;;4.83;4.20;;;13.60;1.00;;;;;;5003226;28;20448;-81
2022/03/28 10:11:03;;;;;;;7.30;3.70;;;13.60;1.00;;;;;;5002344;28;20468;-80
2022/03/28 10:13:30;;;;;;;7.87;4.60;;;13.80;1.00;;;;;;5003948;28;20912;-81
2022/03/28 10:15:57;;;;;;;8.20;4.37;;;13.80;1.00;;;;;;5001366;28;20488;-81
2022/03/28 10:18:24;;;;;;;7.30;5.00;;;13.90;1.00;;;;;;5001706;28;20939;-80
2022/03/28 10:20:54;;;;;;;6.50;4.80;;;13.90;1.00;;;;;;5001306;28;21014;-80
2022/03/28 10:23:24;;;;;;;9.10;4.90;;;14.00;1.00;;;;;;5001256;28;20456;-81
2022/03/28 10:25:56;;;;;;;10.63;6.07;;;14.10;1.00;;;;;;5002379;28;20476;-81
2022/03/28 10:28:23;;;;;;;4.37;3.70;;;14.10;1.00;;;;;;5002631;28;20550;-82
2022/03/28 10:30:50;;;;;;;12.77;5.63;;;14.20;1.00;;;;;;5001887;28;20571;-81
2022/03/28 10:33:21;;;;;;;10.90;4.20;;;14.60;1.00;;;;;;5002547;28;20483;-81
2022/03/28 10:35:59;;;;;;;5.07;4.00;;;14.40;1.00;;;;;;5006547;28;20496;-80
2022/03/28 10:38:26;;;;;;;4.30;3.50;;;14.40;1.00;;;;;;5003819;28;20408;-80
2022/03/28 10:40:58;;;;;;;7.47;3.70;;;14.40;1.00;;;;;;5005050;28;20452;-82
2022/03/28 10:43:27;;;;;;;6.20;4.60;;;14.50;1.00;;;;;;5010913;28;20464;-82
2022/03/28 10:45:58;;;;;;;7.73;4.40;;;14.50;1.00;;;;;;5013715;28;20513;-83
2022/03/28 10:48:39;;;;;;;5.77;4.03;;;14.50;1.00;;;;;;5005463;28;20464;-83
2022/03/28 10:51:14;;;;;;;6.17;4.33;;;14.50;1.00;;;;;;5003515;28;20447;-83
2022/03/28 10:53:47;;;;;;;10.17;5.50;;;14.20;1.00;;;;;;5002765;28;20431;-85
2022/03/28 10:59:19;;;;;;;5.20;3.80;;;14.50;1.00;;;;;;5015361;28;20437;-85
2022/03/28 11:01:49;;;;;;;6.00;4.30;;;14.80;1.00;;;;;;5013564;28;20444;-80
2022/03/28 11:04:21;;;;;;;5.27;3.83;;;14.70;1.00;;;;;;5011194;28;20472;-79
2022/03/28 11:07:03;;;;;;;7.03;5.00;;;14.80;1.00;;;;;;5001661;28;20479;-79
2022/03/28 11:09:44;;;;;;;4.50;3.67;;;14.80;1.00;;;;;;5000368;28;20468;-79
2022/03/28 11:12:16;;;;;;;6.80;3.60;;;14.80;1.00;;;;;;5001948;28;20468;-85
2022/03/28 11:14:46;;;;;;;6.03;3.60;;;14.80;1.00;;;;;;5001614;28;21018;-85
2022/03/28 11:17:23;;;;;;;8.57;3.70;;;14.80;1.00;;;;;;5002002;28;20472;-84
2022/03/28 11:20:08;;;;;;;5.03;2.80;;;14.90;1.00;;;;;;5002870;28;20519;-83
2022/03/28 11:22:41;;;;;;;5.00;2.97;;;14.90;1.00;;;;;;4999743;28;20916;-84
2022/03/28 11:25:33;;;;;;;3.60;3.10;;;14.50;1.00;;;;;;5000905;28;20508;-85
2022/03/28 11:28:08;;;;;;;2.60;2.40;;;15.00;1.00;;;;;;5005968;28;20455;-86
2022/03/28 11:30:38;;;;;;;5.70;2.67;;;15.80;1.00;;;;;;5010083;28;20428;-86
2022/03/28 11:33:10;;;;;;;3.97;2.30;;;14.50;1.00;;;;;;5005186;28;20431;-86
2022/03/28 11:35:37;;;;;;;2.20;2.00;;;14.10;1.00;;;;;;5008169;28;20533;-80
2022/03/28 11:38:04;;;;;;;3.40;2.47;;;15.20;1.00;;;;;;5010070;28;20456;-80
2022/03/28 11:40:38;;;;;;;2.53;1.90;;;15.00;1.00;;;;;;5011483;28;20992;-80
2022/03/28 11:43:07;;;;;;;2.50;2.13;;;15.20;1.00;;;;;;5012583;28;20451;-79
2022/03/28 11:45:34;;;;;;;2.13;1.93;;;15.20;99.90;;;;;;5003223;28;20527;-79
2022/03/28 11:48:02;;;;;;;2.67;2.27;;;15.00;1.00;;;;;;5004638;28;20455;-79
2022/03/28 11:50:31;;;;;;;6.93;3.00;;;15.20;1.00;;;;;;5003846;28;20452;-80
2022/03/28 11:52:58;;;;;;;5.70;3.13;;;15.30;99.90;;;;;;5005649;28;20770;-81
2022/03/28 11:55:27;;;;;;;4.43;2.37;;;15.30;99.90;;;;;;5006056;28;20587;-81
2022/03/28 12:00:42;;;;;;;2.83;2.60;;;15.70;8.40;;;;;;5007021;28;20459;-83
2022/03/28 12:03:14;;;;;;;3.40;2.60;;;15.60;1.00;;;;;;5007775;28;20554;-83
2022/03/28 12:05:46;;;;;;;3.87;3.23;;;15.50;1.00;;;;;;5008116;28;20478;-83
2022/03/28 12:08:14;;;;;;;3.20;2.80;;;15.80;99.90;;;;;;5007827;28;20473;-83
2022/03/28 12:10:43;;;;;;;3.90;2.50;;;15.80;99.90;;;;;;5008339;28;20449;-82
2022/03/28 12:13:12;;;;;;;3.37;3.10;;;15.80;99.90;;;;;;5008549;28;20823;-83
2022/03/28 12:15:43;;;;;;;3.33;2.30;;;15.80;99.90;;;;;;5007581;28;20468;-83
2022/03/28 12:18:11;;;;;;;6.87;2.50;;;15.70;99.90;;;;;;5008070;28;20429;-83
2022/03/28 12:20:40;;;;;;;1.90;1.80;;;15.90;99.90;;;;;;5004789;28;20502;-87
2022/03/28 12:23:08;;;;;;;4.13;1.97;;;15.80;99.90;;;;;;5003159;28;20552;-87
2022/03/28 12:25:37;;;;;;;2.47;2.27;;;15.60;26.40;;;;;;5003866;28;20470;-87
2022/03/28 12:28:07;;;;;;;2.73;2.20;;;15.80;99.90;;;;;;5013218;28;20464;-87
2022/03/28 12:30:38;;;;;;;1.33;1.20;;;15.80;34.10;;;;;;5003994;28;20453;-87
2022/03/28 12:33:12;;;;;;;2.20;1.77;;;15.90;99.90;;;;;;5005008;28;20468;-86
2022/03/28 12:35:41;;;;;;;1.73;1.63;;;15.20;99.90;;;;;;5003524;28;20528;-86
2022/03/28 12:38:16;;;;;;;1.50;1.40;;;15.60;61.30;;;;;;5007455;28;20454;-85
2022/03/28 12:40:46;;;;;;;3.37;1.17;;;15.10;99.90;;;;;;5012089;28;20535;-85
2022/03/28 12:43:14;;;;;;;2.40;2.20;;;;;;;;;;5006109;28;20460;-86
2022/03/28 12:45:45;;;;;;;5.10;1.50;;;15.50;10.50;;;;;;5004204;28;20461;-84
2022/03/28 12:48:13;;;;;;;3.27;1.53;;;15.70;99.90;;;;;;5004050;28;20476;-84
2022/03/28 12:50:55;;;;;;;5.13;2.90;;;15.00;99.90;;;;;;5004438;28;20966;-84
2022/03/28 12:53:25;;;;;;;2.40;2.00;;;15.70;99.90;;;;;;5004213;28;20543;-85
2022/03/28 12:55:52;;;;;;;3.30;2.00;;;18.80;99.90;;;;;;5013144;28;20495;-80
2022/03/28 12:58:31;;;;;;;4.00;3.00;;;16.10;99.90;;;;;;5010090;28;20465;-82
2022/03/28 13:01:06;;;;;;;2.43;2.23;;;15.60;99.90;;;;;;5007614;28;20436;-80
2022/03/28 13:03:50;;;;;;;1.97;1.77;;;15.70;99.90;;;;;;5010345;28;20447;-81
2022/03/28 13:06:17;;;;;;;3.80;3.03;;;;;;;;;;5011705;28;20468;-82
2022/03/28 13:08:44;;;;;;;3.90;2.30;;;15.70;99.90;;;;;;5013470;28;20453;-81
2022/03/28 13:11:16;;;;;;;5.60;2.43;;;15.40;99.90;;;;;;5011458;28;20486;-81